UAE840 OBBI-OMDB
Flight info
| Callsign | UAE840 |
|---|---|
| Flight time | 0h 53m |
| Altitude | 25000 |
| Route | BHR N697 SODAK P559 VUTEB |
| Aircraft | A359/H-SDE2E3GHIJ3J4J5LM1ORWXY/LB1D1 |
Departure
| Time | 2026-04-20 17:22 |
|---|---|
| Airport | Bahrain International Airport (OBBI) |
Arrival
| Time | 2026-04-20 18:16 |
|---|---|
| Airport | Dubai International Airport (OMDB) |
| Time | Latitude | Longitude | Altitude | Speed | Heading |
|---|---|---|---|---|---|
| 2026-04-20 16:38 | 26.26851 | 50.63007 | 27 ft | 0 kts | 213° |
| 2026-04-20 17:02 | 26.26859 | 50.63012 | 27 ft | 4 kts | 213° |
| 2026-04-20 17:02 | 26.26859 | 50.63013 | 27 ft | 0 kts | 213° |
| 2026-04-20 17:08 | 26.26878 | 50.63026 | 26 ft | 4 kts | 212° |
| 2026-04-20 17:08 | 26.26901 | 50.63042 | 26 ft | 4 kts | 212° |
| 2026-04-20 17:08 | 26.26920 | 50.63055 | 26 ft | 4 kts | 188° |
| 2026-04-20 17:08 | 26.26940 | 50.63048 | 27 ft | 4 kts | 125° |
| 2026-04-20 17:09 | 26.26952 | 50.63027 | 26 ft | 2 kts | 122° |
| 2026-04-20 17:09 | 26.26953 | 50.63027 | 28 ft | 4 kts | 122° |
| 2026-04-20 17:14 | 26.26952 | 50.63027 | 28 ft | 0 kts | 123° |
| 2026-04-20 17:14 | 26.26936 | 50.63055 | 27 ft | 9 kts | 123° |
| 2026-04-20 17:14 | 26.26904 | 50.63110 | 27 ft | 11 kts | 123° |
| 2026-04-20 17:15 | 26.26852 | 50.63201 | 27 ft | 16 kts | 122° |
| 2026-04-20 17:15 | 26.26792 | 50.63306 | 27 ft | 8 kts | 120° |
| 2026-04-20 17:15 | 26.26796 | 50.63361 | 27 ft | 7 kts | 59° |
| 2026-04-20 17:15 | 26.26835 | 50.63401 | 26 ft | 9 kts | 57° |
| 2026-04-20 17:16 | 26.26821 | 50.63466 | 27 ft | 10 kts | 125° |
| 2026-04-20 17:16 | 26.26776 | 50.63538 | 26 ft | 13 kts | 123° |
| 2026-04-20 17:16 | 26.26723 | 50.63631 | 27 ft | 16 kts | 122° |
| 2026-04-20 17:16 | 26.26654 | 50.63751 | 27 ft | 20 kts | 122° |
| 2026-04-20 17:17 | 26.26575 | 50.63887 | 28 ft | 22 kts | 122° |
| 2026-04-20 17:17 | 26.26491 | 50.64034 | 27 ft | 24 kts | 122° |
| 2026-04-20 17:17 | 26.26397 | 50.64197 | 31 ft | 26 kts | 122° |
| 2026-04-20 17:17 | 26.26308 | 50.64351 | 30 ft | 16 kts | 123° |
| 2026-04-20 17:18 | 26.26244 | 50.64462 | 26 ft | 18 kts | 122° |
| 2026-04-20 17:18 | 26.26173 | 50.64584 | 29 ft | 20 kts | 123° |
| 2026-04-20 17:18 | 26.26095 | 50.64719 | 27 ft | 22 kts | 123° |
| 2026-04-20 17:18 | 26.26030 | 50.64831 | 27 ft | 10 kts | 122° |
| 2026-04-20 17:19 | 26.26016 | 50.64910 | 27 ft | 12 kts | 79° |
| 2026-04-20 17:19 | 26.26029 | 50.64937 | 27 ft | 0 kts | 56° |
| 2026-04-20 17:19 | 26.26030 | 50.64939 | 27 ft | 0 kts | 56° |
| 2026-04-20 17:20 | 26.26032 | 50.64942 | 26 ft | 1 kts | 55° |
| 2026-04-20 17:20 | 26.26049 | 50.64963 | 26 ft | 6 kts | 45° |
| 2026-04-20 17:21 | 26.26093 | 50.64999 | 25 ft | 7 kts | 33° |
| 2026-04-20 17:21 | 26.26135 | 50.64999 | 29 ft | 6 kts | 332° |
| 2026-04-20 17:21 | 26.26165 | 50.64956 | 26 ft | 9 kts | 300° |
| 2026-04-20 17:21 | 26.26203 | 50.64888 | 26 ft | 12 kts | 303° |
| 2026-04-20 17:22 | 26.26315 | 50.64696 | 25 ft | 60 kts | 302° |
| 2026-04-20 17:22 | 26.26671 | 50.64078 | 26 ft | 127 kts | 303° |
| 2026-04-20 17:22 | 26.27246 | 50.63071 | 112 ft | 172 kts | 304° |
| 2026-04-20 17:22 | 26.27892 | 50.62074 | 1054 ft | 150 kts | 316° |
| 2026-04-20 17:23 | 26.28719 | 50.61428 | 1674 ft | 142 kts | 345° |
| 2026-04-20 17:23 | 26.29684 | 50.61273 | 2072 ft | 143 kts | 11° |
| 2026-04-20 17:23 | 26.30485 | 50.61929 | 2263 ft | 158 kts | 66° |
| 2026-04-20 17:23 | 26.30514 | 50.63209 | 2519 ft | 179 kts | 100° |
| 2026-04-20 17:24 | 26.30552 | 50.64666 | 2737 ft | 202 kts | 73° |
| 2026-04-20 17:24 | 26.31412 | 50.66029 | 2951 ft | 234 kts | 40° |
| 2026-04-20 17:24 | 26.32973 | 50.66786 | 3277 ft | 259 kts | 9° |
| 2026-04-20 17:24 | 26.34824 | 50.66741 | 3752 ft | 273 kts | 354° |
| 2026-04-20 17:25 | 26.36711 | 50.66385 | 3976 ft | 277 kts | 348° |
| 2026-04-20 17:25 | 26.38602 | 50.65944 | 4000 ft | 278 kts | 348° |
| 2026-04-20 17:25 | 26.40497 | 50.65494 | 3999 ft | 279 kts | 348° |
| 2026-04-20 17:25 | 26.42403 | 50.65043 | 4000 ft | 280 kts | 348° |
| 2026-04-20 17:26 | 26.44318 | 50.64679 | 4025 ft | 280 kts | 356° |
| 2026-04-20 17:26 | 26.46246 | 50.64897 | 4408 ft | 281 kts | 17° |
| 2026-04-20 17:26 | 26.47971 | 50.65913 | 5101 ft | 284 kts | 37° |
| 2026-04-20 17:26 | 26.49450 | 50.67423 | 5742 ft | 294 kts | 47° |
| 2026-04-20 17:27 | 26.50791 | 50.69207 | 6319 ft | 305 kts | 52° |
| 2026-04-20 17:27 | 26.52062 | 50.71133 | 6932 ft | 311 kts | 54° |
| 2026-04-20 17:27 | 26.53314 | 50.73117 | 7654 ft | 314 kts | 54° |
| 2026-04-20 17:27 | 26.54581 | 50.75115 | 8419 ft | 317 kts | 53° |
| 2026-04-20 17:28 | 26.55880 | 50.77118 | 9203 ft | 321 kts | 52° |
| 2026-04-20 17:28 | 26.57215 | 50.79132 | 9979 ft | 325 kts | 51° |
| 2026-04-20 17:28 | 26.58598 | 50.81183 | 10505 ft | 339 kts | 51° |
| 2026-04-20 17:28 | 26.60069 | 50.83340 | 10848 ft | 359 kts | 50° |
| 2026-04-20 17:29 | 26.61616 | 50.85600 | 11289 ft | 372 kts | 50° |
| 2026-04-20 17:29 | 26.63169 | 50.87951 | 11941 ft | 380 kts | 55° |
| 2026-04-20 17:29 | 26.64332 | 50.90617 | 12652 ft | 386 kts | 71° |
| 2026-04-20 17:29 | 26.64914 | 50.93561 | 13423 ft | 390 kts | 81° |
| 2026-04-20 17:30 | 26.65191 | 50.96588 | 14108 ft | 393 kts | 86° |
| 2026-04-20 17:30 | 26.65298 | 50.99661 | 14749 ft | 397 kts | 89° |
| 2026-04-20 17:30 | 26.65331 | 51.02719 | 15389 ft | 401 kts | 90° |
| 2026-04-20 17:30 | 26.65351 | 51.05851 | 16024 ft | 405 kts | 90° |
| 2026-04-20 17:31 | 26.65382 | 51.09023 | 16690 ft | 409 kts | 90° |
| 2026-04-20 17:31 | 26.65435 | 51.12216 | 17351 ft | 413 kts | 89° |
| 2026-04-20 17:31 | 26.65506 | 51.15447 | 18004 ft | 418 kts | 89° |
| 2026-04-20 17:31 | 26.65592 | 51.18712 | 18618 ft | 422 kts | 89° |
| 2026-04-20 17:32 | 26.65687 | 51.22005 | 19198 ft | 426 kts | 89° |
| 2026-04-20 17:32 | 26.65781 | 51.25330 | 19771 ft | 430 kts | 89° |
| 2026-04-20 17:32 | 26.65870 | 51.28679 | 20284 ft | 433 kts | 89° |
| 2026-04-20 17:32 | 26.65968 | 51.32068 | 20819 ft | 438 kts | 89° |
| 2026-04-20 17:33 | 26.66062 | 51.35490 | 21369 ft | 442 kts | 89° |
| 2026-04-20 17:33 | 26.65983 | 51.38937 | 21924 ft | 445 kts | 99° |
| 2026-04-20 17:33 | 26.65364 | 51.42318 | 22511 ft | 446 kts | 108° |
| 2026-04-20 17:33 | 26.64482 | 51.45651 | 23087 ft | 448 kts | 111° |
| 2026-04-20 17:34 | 26.63461 | 51.48959 | 23622 ft | 452 kts | 113° |
| 2026-04-20 17:34 | 26.62366 | 51.52265 | 24102 ft | 455 kts | 114° |
| 2026-04-20 17:34 | 26.61244 | 51.55578 | 24564 ft | 458 kts | 114° |
| 2026-04-20 17:34 | 26.60120 | 51.58910 | 24803 ft | 456 kts | 113° |
| 2026-04-20 17:35 | 26.59032 | 51.62175 | 24846 ft | 441 kts | 113° |
| 2026-04-20 17:35 | 26.57983 | 51.65358 | 24846 ft | 434 kts | 113° |
| 2026-04-20 17:35 | 26.56944 | 51.68522 | 24842 ft | 433 kts | 113° |
| 2026-04-20 17:35 | 26.55914 | 51.71669 | 24840 ft | 432 kts | 113° |
| 2026-04-20 17:36 | 26.54881 | 51.74825 | 24847 ft | 432 kts | 113° |
| 2026-04-20 17:36 | 26.53849 | 51.77983 | 24847 ft | 432 kts | 113° |
| 2026-04-20 17:36 | 26.52834 | 51.81085 | 24841 ft | 430 kts | 113° |
| 2026-04-20 17:36 | 26.51794 | 51.84277 | 24829 ft | 433 kts | 112° |
| 2026-04-20 17:37 | 26.50767 | 51.87439 | 24843 ft | 433 kts | 113° |
| 2026-04-20 17:37 | 26.49749 | 51.90545 | 24841 ft | 433 kts | 113° |
| 2026-04-20 17:37 | 26.48709 | 51.93701 | 24837 ft | 432 kts | 113° |
| 2026-04-20 17:37 | 26.47667 | 51.96857 | 24838 ft | 432 kts | 113° |
| 2026-04-20 17:38 | 26.46628 | 52.00003 | 24833 ft | 432 kts | 113° |
| 2026-04-20 17:38 | 26.45586 | 52.03149 | 24836 ft | 435 kts | 113° |
| 2026-04-20 17:38 | 26.44513 | 52.06378 | 24843 ft | 453 kts | 113° |
| 2026-04-20 17:38 | 26.43399 | 52.09737 | 24838 ft | 471 kts | 112° |
| 2026-04-20 17:39 | 26.42244 | 52.13222 | 24839 ft | 487 kts | 112° |
| 2026-04-20 17:39 | 26.41055 | 52.16818 | 24837 ft | 498 kts | 112° |
| 2026-04-20 17:39 | 26.39856 | 52.20451 | 24828 ft | 501 kts | 112° |
| 2026-04-20 17:39 | 26.38646 | 52.24114 | 24835 ft | 504 kts | 112° |
| 2026-04-20 17:40 | 26.37434 | 52.27783 | 24822 ft | 504 kts | 113° |
| 2026-04-20 17:40 | 26.36217 | 52.31433 | 24826 ft | 502 kts | 113° |
| 2026-04-20 17:40 | 26.35001 | 52.35068 | 24836 ft | 500 kts | 112° |
| 2026-04-20 17:40 | 26.33786 | 52.38704 | 24831 ft | 500 kts | 112° |
| 2026-04-20 17:41 | 26.32580 | 52.42349 | 24825 ft | 502 kts | 112° |
| 2026-04-20 17:41 | 26.31373 | 52.46010 | 24827 ft | 505 kts | 113° |
| 2026-04-20 17:41 | 26.30153 | 52.49673 | 24827 ft | 506 kts | 113° |
| 2026-04-20 17:41 | 26.28923 | 52.53345 | 24821 ft | 503 kts | 112° |
| 2026-04-20 17:42 | 26.27704 | 52.56994 | 24833 ft | 502 kts | 113° |
| 2026-04-20 17:42 | 26.26500 | 52.60581 | 24832 ft | 502 kts | 113° |
| 2026-04-20 17:42 | 26.25272 | 52.64237 | 24832 ft | 504 kts | 112° |
| 2026-04-20 17:42 | 26.24053 | 52.67886 | 24824 ft | 503 kts | 112° |
| 2026-04-20 17:43 | 26.22793 | 52.71522 | 24830 ft | 503 kts | 115° |
| 2026-04-20 17:43 | 26.21442 | 52.75106 | 24832 ft | 502 kts | 116° |
| 2026-04-20 17:43 | 26.20042 | 52.78677 | 24830 ft | 502 kts | 116° |
| 2026-04-20 17:43 | 26.18638 | 52.82225 | 24832 ft | 499 kts | 116° |
| 2026-04-20 17:44 | 26.17246 | 52.85757 | 24832 ft | 497 kts | 116° |
| 2026-04-20 17:44 | 26.15870 | 52.89279 | 24833 ft | 496 kts | 116° |
| 2026-04-20 17:44 | 26.14502 | 52.92809 | 24830 ft | 496 kts | 116° |
| 2026-04-20 17:44 | 26.13142 | 52.96337 | 24832 ft | 496 kts | 116° |
| 2026-04-20 17:45 | 26.11785 | 52.99862 | 24831 ft | 496 kts | 116° |
| 2026-04-20 17:45 | 26.10427 | 53.03390 | 24826 ft | 496 kts | 115° |
| 2026-04-20 17:45 | 26.09082 | 53.06928 | 24832 ft | 496 kts | 115° |
| 2026-04-20 17:45 | 26.07772 | 53.10481 | 24835 ft | 497 kts | 114° |
| 2026-04-20 17:46 | 26.06473 | 53.14042 | 24835 ft | 497 kts | 114° |
| 2026-04-20 17:46 | 26.05177 | 53.17607 | 24834 ft | 497 kts | 114° |
| 2026-04-20 17:46 | 26.03878 | 53.21170 | 24837 ft | 497 kts | 114° |
| 2026-04-20 17:46 | 26.02576 | 53.24725 | 24837 ft | 497 kts | 114° |
| 2026-04-20 17:47 | 26.01267 | 53.28285 | 24835 ft | 497 kts | 114° |
| 2026-04-20 17:47 | 25.99957 | 53.31837 | 24833 ft | 497 kts | 115° |
| 2026-04-20 17:47 | 25.98644 | 53.35390 | 24837 ft | 497 kts | 115° |
| 2026-04-20 17:47 | 25.97330 | 53.38943 | 24837 ft | 497 kts | 115° |
| 2026-04-20 17:48 | 25.96014 | 53.42495 | 24837 ft | 497 kts | 115° |
| 2026-04-20 17:48 | 25.94699 | 53.46046 | 24837 ft | 497 kts | 115° |
| 2026-04-20 17:48 | 25.93387 | 53.49584 | 24657 ft | 491 kts | 115° |
| 2026-04-20 17:48 | 25.92129 | 53.53056 | 24431 ft | 479 kts | 114° |
| 2026-04-20 17:49 | 25.90949 | 53.56465 | 24201 ft | 467 kts | 113° |
| 2026-04-20 17:49 | 25.89817 | 53.59805 | 23968 ft | 456 kts | 113° |
| 2026-04-20 17:49 | 25.88710 | 53.63082 | 23753 ft | 452 kts | 113° |
| 2026-04-20 17:49 | 25.87598 | 53.66352 | 23481 ft | 453 kts | 113° |
| 2026-04-20 17:50 | 25.86481 | 53.69613 | 22948 ft | 451 kts | 113° |
| 2026-04-20 17:50 | 25.85384 | 53.72805 | 22456 ft | 447 kts | 113° |
| 2026-04-20 17:50 | 25.84275 | 53.76019 | 22013 ft | 442 kts | 113° |
| 2026-04-20 17:50 | 25.83175 | 53.79191 | 21578 ft | 438 kts | 113° |
| 2026-04-20 17:51 | 25.82086 | 53.82324 | 21156 ft | 433 kts | 113° |
| 2026-04-20 17:51 | 25.81011 | 53.85412 | 20736 ft | 426 kts | 113° |
| 2026-04-20 17:51 | 25.79943 | 53.88473 | 20323 ft | 425 kts | 113° |
| 2026-04-20 17:51 | 25.78878 | 53.91524 | 19907 ft | 422 kts | 113° |
| 2026-04-20 17:52 | 25.77823 | 53.94546 | 19508 ft | 419 kts | 113° |
| 2026-04-20 17:52 | 25.76775 | 53.97549 | 19126 ft | 416 kts | 113° |
| 2026-04-20 17:52 | 25.75736 | 54.00527 | 18746 ft | 412 kts | 113° |
| 2026-04-20 17:52 | 25.74726 | 54.03498 | 18352 ft | 410 kts | 111° |
| 2026-04-20 17:53 | 25.74104 | 54.05518 | 18089 ft | 409 kts | 109° |
| 2026-04-20 17:53 | 25.73271 | 54.09580 | 17569 ft | 408 kts | 102° |
| 2026-04-20 17:53 | 25.72915 | 54.11670 | 17348 ft | 408 kts | 102° |
| 2026-04-20 17:53 | 25.72412 | 54.14758 | 17017 ft | 404 kts | 101° |
| 2026-04-20 17:54 | 25.71935 | 54.17768 | 16698 ft | 401 kts | 101° |
| 2026-04-20 17:54 | 25.71453 | 54.20852 | 16369 ft | 398 kts | 101° |
| 2026-04-20 17:54 | 25.70993 | 54.23822 | 16051 ft | 396 kts | 101° |
| 2026-04-20 17:54 | 25.70528 | 54.26831 | 15728 ft | 394 kts | 100° |
| 2026-04-20 17:55 | 25.70069 | 54.29811 | 15415 ft | 391 kts | 100° |
| 2026-04-20 17:55 | 25.69610 | 54.32777 | 15098 ft | 389 kts | 100° |
| 2026-04-20 17:55 | 25.69156 | 54.35718 | 14801 ft | 386 kts | 100° |
| 2026-04-20 17:55 | 25.68704 | 54.38644 | 14498 ft | 384 kts | 100° |
| 2026-04-20 17:56 | 25.68255 | 54.41553 | 14198 ft | 382 kts | 99° |
| 2026-04-20 17:56 | 25.67805 | 54.44457 | 13894 ft | 381 kts | 99° |
| 2026-04-20 17:56 | 25.67357 | 54.47338 | 13602 ft | 378 kts | 99° |
| 2026-04-20 17:56 | 25.66911 | 54.50206 | 13269 ft | 376 kts | 99° |
| 2026-04-20 17:57 | 25.66470 | 54.53051 | 12942 ft | 375 kts | 99° |
| 2026-04-20 17:57 | 25.66026 | 54.55906 | 12628 ft | 374 kts | 99° |
| 2026-04-20 17:57 | 25.65584 | 54.58742 | 12295 ft | 373 kts | 99° |
| 2026-04-20 17:57 | 25.65143 | 54.61571 | 11972 ft | 372 kts | 99° |
| 2026-04-20 17:58 | 25.64702 | 54.64390 | 11654 ft | 371 kts | 99° |
| 2026-04-20 17:58 | 25.64261 | 54.67196 | 11350 ft | 369 kts | 99° |
| 2026-04-20 17:58 | 25.63822 | 54.70001 | 11036 ft | 369 kts | 99° |
| 2026-04-20 17:58 | 25.63385 | 54.72792 | 10727 ft | 367 kts | 99° |
| 2026-04-20 17:59 | 25.62948 | 54.75577 | 10420 ft | 366 kts | 98° |
| 2026-04-20 17:59 | 25.62511 | 54.78358 | 10134 ft | 366 kts | 98° |
| 2026-04-20 17:59 | 25.62076 | 54.81126 | 10006 ft | 366 kts | 98° |
| 2026-04-20 17:59 | 25.61638 | 54.83899 | 9989 ft | 365 kts | 98° |
| 2026-04-20 18:00 | 25.61111 | 54.86609 | 9995 ft | 365 kts | 107° |
| 2026-04-20 18:00 | 25.60187 | 54.89231 | 9997 ft | 365 kts | 112° |
| 2026-04-20 18:00 | 25.59157 | 54.91842 | 9996 ft | 365 kts | 113° |
| 2026-04-20 18:00 | 25.58148 | 54.94383 | 9997 ft | 365 kts | 113° |
| 2026-04-20 18:01 | 25.57134 | 54.96957 | 9996 ft | 365 kts | 112° |
| 2026-04-20 18:01 | 25.56121 | 54.99538 | 9995 ft | 365 kts | 112° |
| 2026-04-20 18:01 | 25.55111 | 55.02120 | 9996 ft | 365 kts | 112° |
| 2026-04-20 18:01 | 25.53983 | 55.04635 | 9997 ft | 365 kts | 118° |
| 2026-04-20 18:02 | 25.52731 | 55.07072 | 9996 ft | 364 kts | 119° |
| 2026-04-20 18:02 | 25.51464 | 55.09496 | 9997 ft | 364 kts | 119° |
| 2026-04-20 18:02 | 25.50195 | 55.11929 | 9990 ft | 364 kts | 119° |
| 2026-04-20 18:02 | 25.48934 | 55.14352 | 9996 ft | 364 kts | 119° |
| 2026-04-20 18:03 | 25.47671 | 55.16778 | 9998 ft | 364 kts | 119° |
| 2026-04-20 18:03 | 25.46394 | 55.19194 | 9993 ft | 364 kts | 122° |
| 2026-04-20 18:03 | 25.44845 | 55.21410 | 9995 ft | 364 kts | 131° |
| 2026-04-20 18:03 | 25.43158 | 55.23492 | 9997 ft | 363 kts | 132° |
| 2026-04-20 18:04 | 25.41469 | 55.25544 | 9886 ft | 351 kts | 132° |
| 2026-04-20 18:04 | 25.39888 | 55.27472 | 9657 ft | 326 kts | 131° |
| 2026-04-20 18:04 | 25.38404 | 55.29285 | 9423 ft | 314 kts | 131° |
| 2026-04-20 18:04 | 25.36941 | 55.31077 | 9308 ft | 314 kts | 131° |
| 2026-04-20 18:05 | 25.33518 | 55.33973 | 8818 ft | 311 kts | 153° |
| 2026-04-20 18:05 | 25.31605 | 55.35078 | 8586 ft | 310 kts | 153° |
| 2026-04-20 18:05 | 25.29695 | 55.36175 | 8344 ft | 309 kts | 153° |
| 2026-04-20 18:06 | 25.27793 | 55.37273 | 8094 ft | 308 kts | 153° |
| 2026-04-20 18:06 | 25.25902 | 55.38373 | 7855 ft | 307 kts | 152° |
| 2026-04-20 18:06 | 25.24019 | 55.39473 | 7622 ft | 305 kts | 152° |
| 2026-04-20 18:06 | 25.22148 | 55.40566 | 7455 ft | 304 kts | 152° |
| 2026-04-20 18:07 | 25.20277 | 55.41658 | 7257 ft | 304 kts | 152° |
| 2026-04-20 18:07 | 25.18416 | 55.42749 | 6974 ft | 303 kts | 152° |
| 2026-04-20 18:07 | 25.16590 | 55.43823 | 6808 ft | 292 kts | 152° |
| 2026-04-20 18:07 | 25.14825 | 55.44853 | 6650 ft | 282 kts | 152° |
| 2026-04-20 18:08 | 25.13102 | 55.45859 | 6380 ft | 278 kts | 152° |
| 2026-04-20 18:08 | 25.11450 | 55.46951 | 6006 ft | 276 kts | 139° |
| 2026-04-20 18:08 | 25.10261 | 55.48553 | 5719 ft | 268 kts | 121° |
| 2026-04-20 18:08 | 25.09272 | 55.50311 | 5221 ft | 272 kts | 119° |
| 2026-04-20 18:09 | 25.08306 | 55.52080 | 4691 ft | 267 kts | 119° |
| 2026-04-20 18:09 | 25.07390 | 55.53805 | 4162 ft | 261 kts | 114° |
| 2026-04-20 18:09 | 25.07003 | 55.55697 | 3650 ft | 250 kts | 84° |
| 2026-04-20 18:09 | 25.07484 | 55.57477 | 3129 ft | 240 kts | 55° |
| 2026-04-20 18:10 | 25.08613 | 55.58773 | 2618 ft | 233 kts | 36° |
| 2026-04-20 18:10 | 25.09920 | 55.59803 | 2176 ft | 227 kts | 32° |
| 2026-04-20 18:10 | 25.11332 | 55.60327 | 2027 ft | 208 kts | 359° |
| 2026-04-20 18:10 | 25.12704 | 55.59896 | 2049 ft | 206 kts | 334° |
| 2026-04-20 18:11 | 25.13822 | 55.58992 | 2009 ft | 194 kts | 307° |
| 2026-04-20 18:11 | 25.14208 | 55.57630 | 2035 ft | 187 kts | 272° |
| 2026-04-20 18:11 | 25.14391 | 55.56231 | 2032 ft | 178 kts | 290° |
| 2026-04-20 18:11 | 25.14916 | 55.55053 | 2034 ft | 168 kts | 301° |
| 2026-04-20 18:12 | 25.15523 | 55.53959 | 2027 ft | 166 kts | 302° |
| 2026-04-20 18:12 | 25.16127 | 55.52892 | 2032 ft | 161 kts | 302° |
| 2026-04-20 18:12 | 25.16712 | 55.51857 | 2024 ft | 155 kts | 303° |
| 2026-04-20 18:12 | 25.17278 | 55.50885 | 2021 ft | 147 kts | 307° |
| 2026-04-20 18:13 | 25.17833 | 55.49948 | 2026 ft | 146 kts | 302° |
| 2026-04-20 18:13 | 25.18356 | 55.48987 | 1963 ft | 146 kts | 302° |
| 2026-04-20 18:13 | 25.18876 | 55.48028 | 1775 ft | 146 kts | 302° |
| 2026-04-20 18:13 | 25.19402 | 55.47071 | 1582 ft | 146 kts | 302° |
| 2026-04-20 18:14 | 25.19929 | 55.46120 | 1384 ft | 145 kts | 302° |
| 2026-04-20 18:14 | 25.20457 | 55.45166 | 1209 ft | 145 kts | 302° |
| 2026-04-20 18:14 | 25.20984 | 55.44213 | 1008 ft | 145 kts | 302° |
| 2026-04-20 18:14 | 25.21510 | 55.43262 | 822 ft | 145 kts | 301° |
| 2026-04-20 18:15 | 25.22037 | 55.42309 | 650 ft | 145 kts | 301° |
| 2026-04-20 18:15 | 25.22555 | 55.41372 | 457 ft | 145 kts | 301° |
| 2026-04-20 18:15 | 25.23077 | 55.40420 | 261 ft | 145 kts | 300° |
| 2026-04-20 18:15 | 25.23598 | 55.39468 | 97 ft | 145 kts | 301° |
| 2026-04-20 18:16 | 25.24114 | 55.38540 | 32 ft | 130 kts | 301° |
| 2026-04-20 18:16 | 25.24443 | 55.37949 | 31 ft | 56 kts | 301° |
| 2026-04-20 18:16 | 25.24575 | 55.37692 | 28 ft | 26 kts | 291° |
| 2026-04-20 18:16 | 25.24611 | 55.37500 | 28 ft | 26 kts | 274° |
| 2026-04-20 18:17 | 25.24615 | 55.37377 | 28 ft | 15 kts | 272° |
| 2026-04-20 18:17 | 25.24621 | 55.37286 | 28 ft | 0 kts | 282° |
| 2026-04-20 18:18 | 25.24623 | 55.37278 | 28 ft | 3 kts | 283° |
| 2026-04-20 18:18 | 25.24635 | 55.37245 | 28 ft | 6 kts | 295° |
| 2026-04-20 18:18 | 25.24660 | 55.37196 | 28 ft | 5 kts | 300° |
| 2026-04-20 18:20 | 25.24664 | 55.37190 | 28 ft | 2 kts | 301° |
| 2026-04-20 18:20 | 25.24674 | 55.37171 | 28 ft | 4 kts | 302° |
| 2026-04-20 18:20 | 25.24695 | 55.37133 | 28 ft | 7 kts | 302° |
| 2026-04-20 18:21 | 25.24728 | 55.37076 | 28 ft | 10 kts | 302° |
| 2026-04-20 18:21 | 25.24771 | 55.37000 | 28 ft | 13 kts | 302° |
| 2026-04-20 18:21 | 25.24823 | 55.36905 | 28 ft | 16 kts | 300° |
| 2026-04-20 18:21 | 25.24863 | 55.36786 | 28 ft | 18 kts | 283° |
| 2026-04-20 18:22 | 25.24884 | 55.36695 | 28 ft | 10 kts | 290° |
| 2026-04-20 18:22 | 25.24913 | 55.36627 | 28 ft | 7 kts | 288° |
| 2026-04-20 18:22 | 25.24889 | 55.36581 | 28 ft | 8 kts | 218° |
| 2026-04-20 18:22 | 25.24834 | 55.36543 | 27 ft | 11 kts | 213° |
| 2026-04-20 18:23 | 25.24791 | 55.36515 | 27 ft | 0 kts | 211° |
| 2026-04-20 18:23 | 25.24777 | 55.36505 | 27 ft | 5 kts | 210° |
| 2026-04-20 18:23 | 25.24766 | 55.36498 | 27 ft | 0 kts | 211° |